sensor_id;sensor_type;location;lat;lon;timestamp;temperature;humidity
68177;DHT22;56478;50.982;7.032;2023-01-31T00:00:49;6.27;77.33
68177;DHT22;56478;50.982;7.032;2023-01-31T00:03:14;6.26;77.80
68177;DHT22;56478;50.982;7.032;2023-01-31T00:05:40;6.27;77.50
68177;DHT22;56478;50.982;7.032;2023-01-31T00:08:06;6.24;77.81
68177;DHT22;56478;50.982;7.032;2023-01-31T00:10:31;6.30;77.44
68177;DHT22;56478;50.982;7.032;2023-01-31T00:12:57;6.27;77.37
68177;DHT22;56478;50.982;7.032;2023-01-31T00:15:22;6.21;77.63
68177;DHT22;56478;50.982;7.032;2023-01-31T00:17:48;6.24;77.91
68177;DHT22;56478;50.982;7.032;2023-01-31T00:20:14;6.27;77.34
68177;DHT22;56478;50.982;7.032;2023-01-31T00:22:40;6.26;77.54
68177;DHT22;56478;50.982;7.032;2023-01-31T00:25:06;6.26;77.25
68177;DHT22;56478;50.982;7.032;2023-01-31T00:27:31;6.21;77.69
68177;DHT22;56478;50.982;7.032;2023-01-31T00:29:57;6.26;77.68
68177;DHT22;56478;50.982;7.032;2023-01-31T00:32:23;6.30;77.17
68177;DHT22;56478;50.982;7.032;2023-01-31T00:34:53;6.31;76.97
68177;DHT22;56478;50.982;7.032;2023-01-31T00:37:20;6.21;77.50
68177;DHT22;56478;50.982;7.032;2023-01-31T00:39:46;6.23;77.38
68177;DHT22;56478;50.982;7.032;2023-01-31T00:42:12;6.23;77.42
68177;DHT22;56478;50.982;7.032;2023-01-31T00:44:37;6.28;77.47
68177;DHT22;56478;50.982;7.032;2023-01-31T00:47:03;6.24;77.42
68177;DHT22;56478;50.982;7.032;2023-01-31T00:49:28;6.26;77.14
68177;DHT22;56478;50.982;7.032;2023-01-31T00:51:54;6.30;77.26
68177;DHT22;56478;50.982;7.032;2023-01-31T00:54:20;6.24;77.61
68177;DHT22;56478;50.982;7.032;2023-01-31T00:56:45;6.23;77.38
68177;DHT22;56478;50.982;7.032;2023-01-31T00:59:11;6.09;77.74
68177;DHT22;56478;50.982;7.032;2023-01-31T01:01:36;6.18;77.64
68177;DHT22;56478;50.982;7.032;2023-01-31T01:04:02;6.18;77.60
68177;DHT22;56478;50.982;7.032;2023-01-31T01:06:28;6.20;77.82
68177;DHT22;56478;50.982;7.032;2023-01-31T01:08:55;6.20;77.50
68177;DHT22;56478;50.982;7.032;2023-01-31T01:11:32;6.16;77.85
68177;DHT22;56478;50.982;7.032;2023-01-31T01:13:58;6.16;77.76
68177;DHT22;56478;50.982;7.032;2023-01-31T01:16:33;6.09;77.70
68177;DHT22;56478;50.982;7.032;2023-01-31T01:19:04;6.05;77.95
68177;DHT22;56478;50.982;7.032;2023-01-31T01:21:31;6.06;77.88
68177;DHT22;56478;50.982;7.032;2023-01-31T01:23:59;6.02;77.74
68177;DHT22;56478;50.982;7.032;2023-01-31T01:26:28;6.06;77.83
68177;DHT22;56478;50.982;7.032;2023-01-31T01:28:55;6.14;77.24
68177;DHT22;56478;50.982;7.032;2023-01-31T01:31:21;6.07;77.50
68177;DHT22;56478;50.982;7.032;2023-01-31T01:33:48;6.06;77.38
68177;DHT22;56478;50.982;7.032;2023-01-31T01:36:16;6.10;77.50
68177;DHT22;56478;50.982;7.032;2023-01-31T01:38:43;6.07;77.49
68177;DHT22;56478;50.982;7.032;2023-01-31T01:41:10;6.06;77.61
68177;DHT22;56478;50.982;7.032;2023-01-31T01:43:55;6.03;77.56
68177;DHT22;56478;50.982;7.032;2023-01-31T01:46:25;6.03;77.49
68177;DHT22;56478;50.982;7.032;2023-01-31T01:49:12;6.02;77.49
68177;DHT22;56478;50.982;7.032;2023-01-31T01:51:39;6.05;77.35
68177;DHT22;56478;50.982;7.032;2023-01-31T01:54:11;6.05;77.81
68177;DHT22;56478;50.982;7.032;2023-01-31T01:56:41;6.06;77.59
68177;DHT22;56478;50.982;7.032;2023-01-31T01:59:19;6.10;77.01
68177;DHT22;56478;50.982;7.032;2023-01-31T02:01:48;6.02;77.16
68177;DHT22;56478;50.982;7.032;2023-01-31T02:04:17;6.00;77.23
68177;DHT22;56478;50.982;7.032;2023-01-31T02:06:44;6.02;77.14
68177;DHT22;56478;50.982;7.032;2023-01-31T02:09:18;6.02;76.89
68177;DHT22;56478;50.982;7.032;2023-01-31T02:11:44;6.00;77.19
68177;DHT22;56478;50.982;7.032;2023-01-31T02:14:10;6.05;77.07
68177;DHT22;56478;50.982;7.032;2023-01-31T02:16:37;5.98;77.10
68177;DHT22;56478;50.982;7.032;2023-01-31T02:19:04;6.06;77.05
68177;DHT22;56478;50.982;7.032;2023-01-31T02:27:19;6.03;77.05
68177;DHT22;56478;50.982;7.032;2023-01-31T02:41:00;5.89;76.82
68177;DHT22;56478;50.982;7.032;2023-01-31T02:46:57;5.81;77.26
68177;DHT22;56478;50.982;7.032;2023-01-31T02:49:30;5.76;77.18
68177;DHT22;56478;50.982;7.032;2023-01-31T02:52:21;5.75;77.40
68177;DHT22;56478;50.982;7.032;2023-01-31T02:57:48;5.81;77.99
68177;DHT22;56478;50.982;7.032;2023-01-31T03:00:14;5.72;77.79
68177;DHT22;56478;50.982;7.032;2023-01-31T03:02:41;5.74;77.52
68177;DHT22;56478;50.982;7.032;2023-01-31T03:05:10;5.75;77.33
68177;DHT22;56478;50.982;7.032;2023-01-31T03:07:37;5.74;77.47
68177;DHT22;56478;50.982;7.032;2023-01-31T03:16:05;5.72;77.39
68177;DHT22;56478;50.982;7.032;2023-01-31T03:19:00;5.71;77.74
68177;DHT22;56478;50.982;7.032;2023-01-31T03:21:34;5.68;77.63
68177;DHT22;56478;50.982;7.032;2023-01-31T03:24:03;5.66;78.00
68177;DHT22;56478;50.982;7.032;2023-01-31T03:26:30;5.68;78.25
68177;DHT22;56478;50.982;7.032;2023-01-31T03:28:59;5.64;78.61
68177;DHT22;56478;50.982;7.032;2023-01-31T03:31:29;5.64;78.39
68177;DHT22;56478;50.982;7.032;2023-01-31T03:33:59;5.57;78.38
68177;DHT22;56478;50.982;7.032;2023-01-31T03:36:37;5.59;78.22
68177;DHT22;56478;50.982;7.032;2023-01-31T03:44:07;5.50;78.40
68177;DHT22;56478;50.982;7.032;2023-01-31T03:46:42;5.40;78.73
68177;DHT22;56478;50.982;7.032;2023-01-31T03:49:10;5.31;79.11
68177;DHT22;56478;50.982;7.032;2023-01-31T03:51:41;5.30;78.81
68177;DHT22;56478;50.982;7.032;2023-01-31T03:54:13;5.30;78.84
68177;DHT22;56478;50.982;7.032;2023-01-31T03:56:42;5.27;79.08
68177;DHT22;56478;50.982;7.032;2023-01-31T03:59:16;5.19;79.33
68177;DHT22;56478;50.982;7.032;2023-01-31T04:01:46;5.11;79.57
68177;DHT22;56478;50.982;7.032;2023-01-31T04:04:24;5.09;79.31
68177;DHT22;56478;50.982;7.032;2023-01-31T04:06:51;5.00;79.70
68177;DHT22;56478;50.982;7.032;2023-01-31T04:09:17;5.00;80.15
68177;DHT22;56478;50.982;7.032;2023-01-31T04:11:47;4.96;80.15
68177;DHT22;56478;50.982;7.032;2023-01-31T04:14:13;4.95;80.40
68177;DHT22;56478;50.982;7.032;2023-01-31T04:16:39;4.85;80.58
68177;DHT22;56478;50.982;7.032;2023-01-31T04:19:05;4.81;80.74
68177;DHT22;56478;50.982;7.032;2023-01-31T04:21:30;4.78;80.84
68177;DHT22;56478;50.982;7.032;2023-01-31T04:23:56;4.77;80.86
68177;DHT22;56478;50.982;7.032;2023-01-31T04:26:21;4.68;81.14
68177;DHT22;56478;50.982;7.032;2023-01-31T04:28:47;4.68;81.39
68177;DHT22;56478;50.982;7.032;2023-01-31T04:31:13;4.74;81.43
68177;DHT22;56478;50.982;7.032;2023-01-31T04:33:39;4.74;81.40
68177;DHT22;56478;50.982;7.032;2023-01-31T04:36:05;4.72;81.64
68177;DHT22;56478;50.982;7.032;2023-01-31T04:38:30;4.78;81.59
68177;DHT22;56478;50.982;7.032;2023-01-31T04:40:56;4.79;81.45
68177;DHT22;56478;50.982;7.032;2023-01-31T04:43:22;4.81;81.82
68177;DHT22;56478;50.982;7.032;2023-01-31T04:45:47;4.77;81.67
68177;DHT22;56478;50.982;7.032;2023-01-31T04:48:13;4.72;81.75
68177;DHT22;56478;50.982;7.032;2023-01-31T04:50:38;4.69;81.55
68177;DHT22;56478;50.982;7.032;2023-01-31T04:53:04;4.62;81.64
68177;DHT22;56478;50.982;7.032;2023-01-31T04:55:30;4.57;81.79
68177;DHT22;56478;50.982;7.032;2023-01-31T04:57:56;4.53;81.68
68177;DHT22;56478;50.982;7.032;2023-01-31T05:00:21;4.56;82.05
68177;DHT22;56478;50.982;7.032;2023-01-31T05:02:47;4.51;81.94
68177;DHT22;56478;50.982;7.032;2023-01-31T05:05:14;4.49;81.74
68177;DHT22;56478;50.982;7.032;2023-01-31T05:07:40;4.41;81.81
68177;DHT22;56478;50.982;7.032;2023-01-31T05:10:06;4.46;82.07
68177;DHT22;56478;50.982;7.032;2023-01-31T05:12:31;4.43;82.01
68177;DHT22;56478;50.982;7.032;2023-01-31T05:14:57;4.36;81.94
68177;DHT22;56478;50.982;7.032;2023-01-31T05:17:23;4.29;82.09
68177;DHT22;56478;50.982;7.032;2023-01-31T05:19:57;4.30;82.07
68177;DHT22;56478;50.982;7.032;2023-01-31T05:22:23;4.26;82.11
68177;DHT22;56478;50.982;7.032;2023-01-31T05:24:49;4.26;81.74
68177;DHT22;56478;50.982;7.032;2023-01-31T05:27:15;4.22;82.11
68177;DHT22;56478;50.982;7.032;2023-01-31T05:29:41;4.22;82.14
68177;DHT22;56478;50.982;7.032;2023-01-31T05:32:06;4.25;82.09
68177;DHT22;56478;50.982;7.032;2023-01-31T05:34:33;4.26;81.72
68177;DHT22;56478;50.982;7.032;2023-01-31T05:37:00;4.30;81.97
68177;DHT22;56478;50.982;7.032;2023-01-31T05:39:26;4.36;81.64
68177;DHT22;56478;50.982;7.032;2023-01-31T05:41:52;4.37;81.55
68177;DHT22;56478;50.982;7.032;2023-01-31T05:44:18;4.46;81.38
68177;DHT22;56478;50.982;7.032;2023-01-31T05:46:44;4.46;81.41
68177;DHT22;56478;50.982;7.032;2023-01-31T05:49:10;4.57;81.21
68177;DHT22;56478;50.982;7.032;2023-01-31T05:51:36;4.56;80.89
68177;DHT22;56478;50.982;7.032;2023-01-31T05:54:02;4.60;80.95
68177;DHT22;56478;50.982;7.032;2023-01-31T05:56:28;4.62;81.19
68177;DHT22;56478;50.982;7.032;2023-01-31T05:58:54;4.67;80.86
68177;DHT22;56478;50.982;7.032;2023-01-31T06:01:21;4.65;80.83
68177;DHT22;56478;50.982;7.032;2023-01-31T06:03:47;4.68;80.74
68177;DHT22;56478;50.982;7.032;2023-01-31T06:06:13;4.74;80.82
68177;DHT22;56478;50.982;7.032;2023-01-31T06:08:39;4.65;81.03
68177;DHT22;56478;50.982;7.032;2023-01-31T06:11:06;4.71;80.99
68177;DHT22;56478;50.982;7.032;2023-01-31T06:13:32;4.67;81.18
68177;DHT22;56478;50.982;7.032;2023-01-31T06:15:58;4.69;81.17
68177;DHT22;56478;50.982;7.032;2023-01-31T06:18:24;4.72;81.35
68177;DHT22;56478;50.982;7.032;2023-01-31T06:20:51;4.72;81.28
68177;DHT22;56478;50.982;7.032;2023-01-31T06:23:17;4.81;81.33
68177;DHT22;56478;50.982;7.032;2023-01-31T06:25:43;4.86;81.18
68177;DHT22;56478;50.982;7.032;2023-01-31T06:28:09;4.88;81.46
68177;DHT22;56478;50.982;7.032;2023-01-31T06:30:34;4.88;81.56
68177;DHT22;56478;50.982;7.032;2023-01-31T06:33:01;4.93;81.60
68177;DHT22;56478;50.982;7.032;2023-01-31T06:35:27;4.95;81.30
68177;DHT22;56478;50.982;7.032;2023-01-31T06:37:54;5.02;81.43
68177;DHT22;56478;50.982;7.032;2023-01-31T06:40:19;5.05;81.11
68177;DHT22;56478;50.982;7.032;2023-01-31T06:42:45;5.16;81.08
68177;DHT22;56478;50.982;7.032;2023-01-31T06:45:10;5.16;80.88
68177;DHT22;56478;50.982;7.032;2023-01-31T06:47:36;5.16;80.87
68177;DHT22;56478;50.982;7.032;2023-01-31T06:50:02;5.24;80.62
68177;DHT22;56478;50.982;7.032;2023-01-31T06:52:28;5.30;81.18
68177;DHT22;56478;50.982;7.032;2023-01-31T06:54:53;5.33;81.02
68177;DHT22;56478;50.982;7.032;2023-01-31T06:57:19;5.40;80.56
68177;DHT22;56478;50.982;7.032;2023-01-31T06:59:44;5.46;80.40
68177;DHT22;56478;50.982;7.032;2023-01-31T07:02:10;5.46;80.17
68177;DHT22;56478;50.982;7.032;2023-01-31T07:04:36;5.50;80.08
68177;DHT22;56478;50.982;7.032;2023-01-31T07:07:02;5.55;80.34
68177;DHT22;56478;50.982;7.032;2023-01-31T07:09:29;5.59;79.66
68177;DHT22;56478;50.982;7.032;2023-01-31T07:11:54;5.64;79.72
68177;DHT22;56478;50.982;7.032;2023-01-31T07:14:20;5.65;79.33
68177;DHT22;56478;50.982;7.032;2023-01-31T07:16:46;5.71;79.05
68177;DHT22;56478;50.982;7.032;2023-01-31T07:19:11;5.76;78.67
68177;DHT22;56478;50.982;7.032;2023-01-31T07:21:37;5.82;78.74
68177;DHT22;56478;50.982;7.032;2023-01-31T07:24:03;5.92;78.22
68177;DHT22;56478;50.982;7.032;2023-01-31T07:26:29;5.96;78.51
68177;DHT22;56478;50.982;7.032;2023-01-31T07:28:55;5.99;78.60
68177;DHT22;56478;50.982;7.032;2023-01-31T07:31:21;6.05;77.30
68177;DHT22;56478;50.982;7.032;2023-01-31T07:33:47;6.10;78.04
68177;DHT22;56478;50.982;7.032;2023-01-31T07:36:14;6.17;77.41
68177;DHT22;56478;50.982;7.032;2023-01-31T07:38:40;6.18;76.94
68177;DHT22;56478;50.982;7.032;2023-01-31T07:41:06;6.14;77.33
68177;DHT22;56478;50.982;7.032;2023-01-31T07:43:33;6.26;76.80
68177;DHT22;56478;50.982;7.032;2023-01-31T07:45:58;6.26;76.48
68177;DHT22;56478;50.982;7.032;2023-01-31T07:48:24;6.30;76.17
68177;DHT22;56478;50.982;7.032;2023-01-31T07:50:52;6.30;75.80
68177;DHT22;56478;50.982;7.032;2023-01-31T07:53:18;6.31;76.23
68177;DHT22;56478;50.982;7.032;2023-01-31T07:55:44;6.44;75.58
68177;DHT22;56478;50.982;7.032;2023-01-31T07:58:15;6.59;74.58
68177;DHT22;56478;50.982;7.032;2023-01-31T08:00:41;6.61;73.93
68177;DHT22;56478;50.982;7.032;2023-01-31T08:03:27;6.54;73.90
68177;DHT22;56478;50.982;7.032;2023-01-31T08:06:07;6.56;74.09
68177;DHT22;56478;50.982;7.032;2023-01-31T08:08:34;6.64;73.69
68177;DHT22;56478;50.982;7.032;2023-01-31T08:11:00;6.69;73.41
68177;DHT22;56478;50.982;7.032;2023-01-31T08:13:26;6.59;73.78
68177;DHT22;56478;50.982;7.032;2023-01-31T08:15:52;6.61;73.57
68177;DHT22;56478;50.982;7.032;2023-01-31T08:18:19;6.68;73.66
68177;DHT22;56478;50.982;7.032;2023-01-31T08:20:44;6.64;74.09
68177;DHT22;56478;50.982;7.032;2023-01-31T08:23:10;6.68;73.70
68177;DHT22;56478;50.982;7.032;2023-01-31T08:25:35;6.78;73.09
68177;DHT22;56478;50.982;7.032;2023-01-31T08:28:02;6.80;72.83
68177;DHT22;56478;50.982;7.032;2023-01-31T08:30:28;6.76;73.40
68177;DHT22;56478;50.982;7.032;2023-01-31T08:32:54;6.73;73.32
68177;DHT22;56478;50.982;7.032;2023-01-31T08:35:20;6.80;72.98
68177;DHT22;56478;50.982;7.032;2023-01-31T08:37:46;6.80;73.01
68177;DHT22;56478;50.982;7.032;2023-01-31T08:40:12;6.83;72.56
68177;DHT22;56478;50.982;7.032;2023-01-31T08:42:37;6.86;72.45
68177;DHT22;56478;50.982;7.032;2023-01-31T08:45:03;6.96;72.26
68177;DHT22;56478;50.982;7.032;2023-01-31T08:47:29;6.97;72.67
68177;DHT22;56478;50.982;7.032;2023-01-31T08:49:54;6.99;72.53
68177;DHT22;56478;50.982;7.032;2023-01-31T08:52:20;6.93;72.29
68177;DHT22;56478;50.982;7.032;2023-01-31T08:54:45;6.95;72.63
68177;DHT22;56478;50.982;7.032;2023-01-31T08:57:10;6.96;72.86
68177;DHT22;56478;50.982;7.032;2023-01-31T08:59:36;6.96;73.09
68177;DHT22;56478;50.982;7.032;2023-01-31T09:02:01;6.95;73.16
68177;DHT22;56478;50.982;7.032;2023-01-31T09:04:27;6.95;72.98
68177;DHT22;56478;50.982;7.032;2023-01-31T09:06:53;6.96;72.88
68177;DHT22;56478;50.982;7.032;2023-01-31T09:09:19;6.97;72.73
68177;DHT22;56478;50.982;7.032;2023-01-31T09:11:44;7.00;73.06
68177;DHT22;56478;50.982;7.032;2023-01-31T09:14:10;7.00;73.15
68177;DHT22;56478;50.982;7.032;2023-01-31T09:16:36;7.06;73.06
68177;DHT22;56478;50.982;7.032;2023-01-31T09:19:02;7.06;73.21
68177;DHT22;56478;50.982;7.032;2023-01-31T09:21:27;7.08;73.25
68177;DHT22;56478;50.982;7.032;2023-01-31T09:23:58;7.03;73.68
68177;DHT22;56478;50.982;7.032;2023-01-31T09:26:26;6.97;73.91
68177;DHT22;56478;50.982;7.032;2023-01-31T09:28:52;7.08;74.71
68177;DHT22;56478;50.982;7.032;2023-01-31T09:31:19;7.17;74.37
68177;DHT22;56478;50.982;7.032;2023-01-31T09:33:45;7.10;75.51
68177;DHT22;56478;50.982;7.032;2023-01-31T09:36:14;7.07;76.89
68177;DHT22;56478;50.982;7.032;2023-01-31T09:38:40;7.04;78.21
68177;DHT22;56478;50.982;7.032;2023-01-31T09:41:36;7.06;77.11
68177;DHT22;56478;50.982;7.032;2023-01-31T09:44:06;7.14;77.10
68177;DHT22;56478;50.982;7.032;2023-01-31T09:46:41;7.01;77.24
68177;DHT22;56478;50.982;7.032;2023-01-31T09:49:23;7.10;78.25
68177;DHT22;56478;50.982;7.032;2023-01-31T09:51:54;7.11;78.73
68177;DHT22;56478;50.982;7.032;2023-01-31T09:54:27;7.10;78.47
68177;DHT22;56478;50.982;7.032;2023-01-31T09:57:00;7.08;80.29
68177;DHT22;56478;50.982;7.032;2023-01-31T09:59:34;7.00;79.52
68177;DHT22;56478;50.982;7.032;2023-01-31T10:02:16;7.00;79.16
68177;DHT22;56478;50.982;7.032;2023-01-31T10:13:27;7.06;80.62
68177;DHT22;56478;50.982;7.032;2023-01-31T10:16:17;7.13;81.19
68177;DHT22;56478;50.982;7.032;2023-01-31T10:18:48;7.27;79.93
68177;DHT22;56478;50.982;7.032;2023-01-31T10:21:17;7.21;78.18
68177;DHT22;56478;50.982;7.032;2023-01-31T10:23:49;7.28;77.74
68177;DHT22;56478;50.982;7.032;2023-01-31T10:26:25;7.27;77.54
68177;DHT22;56478;50.982;7.032;2023-01-31T10:34:13;7.49;78.49
68177;DHT22;56478;50.982;7.032;2023-01-31T10:36:50;7.51;77.98
68177;DHT22;56478;50.982;7.032;2023-01-31T10:39:36;7.51;77.74
68177;DHT22;56478;50.982;7.032;2023-01-31T10:42:26;7.59;77.90
68177;DHT22;56478;50.982;7.032;2023-01-31T10:44:57;7.52;77.45
68177;DHT22;56478;50.982;7.032;2023-01-31T10:47:32;7.38;78.51
68177;DHT22;56478;50.982;7.032;2023-01-31T10:49:58;7.42;78.77
68177;DHT22;56478;50.982;7.032;2023-01-31T10:55:19;7.48;79.40
68177;DHT22;56478;50.982;7.032;2023-01-31T10:57:50;7.52;79.66
68177;DHT22;56478;50.982;7.032;2023-01-31T11:00:29;7.63;78.55
68177;DHT22;56478;50.982;7.032;2023-01-31T11:02:56;7.61;77.82
68177;DHT22;56478;50.982;7.032;2023-01-31T11:05:25;7.65;77.92
68177;DHT22;56478;50.982;7.032;2023-01-31T11:07:51;7.70;77.19
68177;DHT22;56478;50.982;7.032;2023-01-31T11:10:25;7.65;77.01
68177;DHT22;56478;50.982;7.032;2023-01-31T11:13:00;7.89;76.24
68177;DHT22;56478;50.982;7.032;2023-01-31T11:15:37;8.01;75.84
68177;DHT22;56478;50.982;7.032;2023-01-31T11:18:04;8.15;76.10
68177;DHT22;56478;50.982;7.032;2023-01-31T11:20:33;8.11;75.14
68177;DHT22;56478;50.982;7.032;2023-01-31T11:23:00;8.05;75.95
68177;DHT22;56478;50.982;7.032;2023-01-31T11:25:28;8.25;75.00
68177;DHT22;56478;50.982;7.032;2023-01-31T11:28:00;8.32;74.22
68177;DHT22;56478;50.982;7.032;2023-01-31T11:30:31;8.49;74.96
68177;DHT22;56478;50.982;7.032;2023-01-31T11:32:59;8.59;73.67
68177;DHT22;56478;50.982;7.032;2023-01-31T11:35:30;8.62;73.52
68177;DHT22;56478;50.982;7.032;2023-01-31T11:40:38;8.72;73.33
68177;DHT22;56478;50.982;7.032;2023-01-31T11:43:25;8.70;72.77
68177;DHT22;56478;50.982;7.032;2023-01-31T11:45:56;8.63;73.50
68177;DHT22;56478;50.982;7.032;2023-01-31T11:48:42;8.62;73.82
68177;DHT22;56478;50.982;7.032;2023-01-31T11:51:09;8.59;73.87
68177;DHT22;56478;50.982;7.032;2023-01-31T11:56:22;8.49;74.03
68177;DHT22;56478;50.982;7.032;2023-01-31T11:58:52;8.46;74.17
68177;DHT22;56478;50.982;7.032;2023-01-31T12:01:21;8.48;74.01
68177;DHT22;56478;50.982;7.032;2023-01-31T12:03:50;8.53;74.11
68177;DHT22;56478;50.982;7.032;2023-01-31T12:06:36;8.45;74.23
68177;DHT22;56478;50.982;7.032;2023-01-31T12:09:20;8.38;74.10
68177;DHT22;56478;50.982;7.032;2023-01-31T12:12:00;8.39;74.23
68177;DHT22;56478;50.982;7.032;2023-01-31T12:14:38;8.44;75.18
68177;DHT22;56478;50.982;7.032;2023-01-31T12:17:05;8.28;75.26
68177;DHT22;56478;50.982;7.032;2023-01-31T12:22:40;8.45;75.68
68177;DHT22;56478;50.982;7.032;2023-01-31T12:25:20;8.35;75.65
68177;DHT22;56478;50.982;7.032;2023-01-31T12:34:51;8.39;76.14
68177;DHT22;56478;50.982;7.032;2023-01-31T12:36:55;8.34;75.73
68177;DHT22;56478;50.982;7.032;2023-01-31T12:42:47;8.38;76.64
68177;DHT22;56478;50.982;7.032;2023-01-31T12:50:31;8.60;76.85
68177;DHT22;56478;50.982;7.032;2023-01-31T12:56:20;8.53;76.74
68177;DHT22;56478;50.982;7.032;2023-01-31T13:01:48;8.46;77.55
68177;DHT22;56478;50.982;7.032;2023-01-31T13:07:24;8.27;78.12
68177;DHT22;56478;50.982;7.032;2023-01-31T13:09:54;8.37;78.11
68177;DHT22;56478;50.982;7.032;2023-01-31T13:12:26;8.25;78.10
68177;DHT22;56478;50.982;7.032;2023-01-31T13:15:20;8.17;78.35
68177;DHT22;56478;50.982;7.032;2023-01-31T13:17:53;8.22;78.41
68177;DHT22;56478;50.982;7.032;2023-01-31T13:20:29;8.17;78.72
68177;DHT22;56478;50.982;7.032;2023-01-31T13:23:03;8.22;78.72
68177;DHT22;56478;50.982;7.032;2023-01-31T13:25:45;8.18;78.61
68177;DHT22;56478;50.982;7.032;2023-01-31T13:28:17;8.08;79.19
68177;DHT22;56478;50.982;7.032;2023-01-31T13:30:57;8.14;79.01
68177;DHT22;56478;50.982;7.032;2023-01-31T13:33:30;8.07;79.48
68177;DHT22;56478;50.982;7.032;2023-01-31T13:39:06;8.10;79.43
68177;DHT22;56478;50.982;7.032;2023-01-31T13:41:33;8.07;79.30
68177;DHT22;56478;50.982;7.032;2023-01-31T13:44:00;8.07;79.51
68177;DHT22;56478;50.982;7.032;2023-01-31T13:49:08;8.08;79.67
68177;DHT22;56478;50.982;7.032;2023-01-31T13:52:08;8.00;80.07
68177;DHT22;56478;50.982;7.032;2023-01-31T13:54:41;8.01;80.49
68177;DHT22;56478;50.982;7.032;2023-01-31T13:57:27;7.93;81.64
68177;DHT22;56478;50.982;7.032;2023-01-31T13:59:55;7.93;81.97
68177;DHT22;56478;50.982;7.032;2023-01-31T14:02:23;7.90;82.73
68177;DHT22;56478;50.982;7.032;2023-01-31T14:04:48;7.82;83.36
68177;DHT22;56478;50.982;7.032;2023-01-31T14:07:16;7.82;83.97
68177;DHT22;56478;50.982;7.032;2023-01-31T14:14:44;7.70;85.25
68177;DHT22;56478;50.982;7.032;2023-01-31T14:22:21;7.66;86.09
68177;DHT22;56478;50.982;7.032;2023-01-31T14:28:26;7.55;86.64
68177;DHT22;56478;50.982;7.032;2023-01-31T14:50:00;7.55;87.15
68177;DHT22;56478;50.982;7.032;2023-01-31T14:55:30;7.56;87.02
68177;DHT22;56478;50.982;7.032;2023-01-31T14:58:00;7.65;86.78
68177;DHT22;56478;50.982;7.032;2023-01-31T15:00:30;7.63;86.89
68177;DHT22;56478;50.982;7.032;2023-01-31T15:05:46;7.65;87.02
68177;DHT22;56478;50.982;7.032;2023-01-31T15:10:58;7.54;87.56
68177;DHT22;56478;50.982;7.032;2023-01-31T15:16:26;7.47;88.07
68177;DHT22;56478;50.982;7.032;2023-01-31T15:19:09;7.40;88.42
68177;DHT22;56478;50.982;7.032;2023-01-31T15:24:17;7.44;88.62
68177;DHT22;56478;50.982;7.032;2023-01-31T15:26:44;7.40;88.69
68177;DHT22;56478;50.982;7.032;2023-01-31T15:32:28;7.38;89.04
68177;DHT22;56478;50.982;7.032;2023-01-31T15:35:06;7.40;89.15
68177;DHT22;56478;50.982;7.032;2023-01-31T15:37:37;7.41;89.06
68177;DHT22;56478;50.982;7.032;2023-01-31T15:40:18;7.35;89.73
68177;DHT22;56478;50.982;7.032;2023-01-31T15:42:44;7.34;89.80
68177;DHT22;56478;50.982;7.032;2023-01-31T15:48:07;7.35;89.87
68177;DHT22;56478;50.982;7.032;2023-01-31T15:50:33;7.38;89.94
68177;DHT22;56478;50.982;7.032;2023-01-31T15:53:13;7.35;90.10
68177;DHT22;56478;50.982;7.032;2023-01-31T15:55:39;7.35;89.99
68177;DHT22;56478;50.982;7.032;2023-01-31T15:58:06;7.45;89.83
68177;DHT22;56478;50.982;7.032;2023-01-31T16:00:36;7.40;89.71
68177;DHT22;56478;50.982;7.032;2023-01-31T16:03:05;7.42;89.58
68177;DHT22;56478;50.982;7.032;2023-01-31T16:05:37;7.47;89.17
68177;DHT22;56478;50.982;7.032;2023-01-31T16:08:18;7.58;88.90
68177;DHT22;56478;50.982;7.032;2023-01-31T16:10:46;7.47;89.25
68177;DHT22;56478;50.982;7.032;2023-01-31T16:13:13;7.47;89.64
68177;DHT22;56478;50.982;7.032;2023-01-31T16:15:39;7.51;89.49
68177;DHT22;56478;50.982;7.032;2023-01-31T16:18:06;7.56;89.53
68177;DHT22;56478;50.982;7.032;2023-01-31T16:20:52;7.58;89.39
68177;DHT22;56478;50.982;7.032;2023-01-31T16:28:29;7.61;88.99
68177;DHT22;56478;50.982;7.032;2023-01-31T16:31:05;7.55;89.19
68177;DHT22;56478;50.982;7.032;2023-01-31T16:33:31;7.63;88.86
68177;DHT22;56478;50.982;7.032;2023-01-31T16:36:12;7.59;88.98
68177;DHT22;56478;50.982;7.032;2023-01-31T16:38:41;7.55;89.24
68177;DHT22;56478;50.982;7.032;2023-01-31T16:41:08;7.52;89.46
68177;DHT22;56478;50.982;7.032;2023-01-31T16:43:40;7.55;89.51
68177;DHT22;56478;50.982;7.032;2023-01-31T16:46:21;7.61;89.08
68177;DHT22;56478;50.982;7.032;2023-01-31T16:49:02;7.63;88.87
68177;DHT22;56478;50.982;7.032;2023-01-31T16:51:37;7.66;89.01
68177;DHT22;56478;50.982;7.032;2023-01-31T16:54:26;7.65;88.95
68177;DHT22;56478;50.982;7.032;2023-01-31T17:02:28;7.68;88.93
68177;DHT22;56478;50.982;7.032;2023-01-31T17:05:00;7.65;89.07
68177;DHT22;56478;50.982;7.032;2023-01-31T17:07:34;7.70;89.08
68177;DHT22;56478;50.982;7.032;2023-01-31T17:10:02;7.65;89.14
68177;DHT22;56478;50.982;7.032;2023-01-31T17:12:30;7.68;89.00
68177;DHT22;56478;50.982;7.032;2023-01-31T17:14:57;7.69;89.08
68177;DHT22;56478;50.982;7.032;2023-01-31T17:17:27;7.73;89.03
68177;DHT22;56478;50.982;7.032;2023-01-31T17:19:53;7.73;88.97
68177;DHT22;56478;50.982;7.032;2023-01-31T17:22:19;7.70;88.89
68177;DHT22;56478;50.982;7.032;2023-01-31T17:24:47;7.76;88.71
68177;DHT22;56478;50.982;7.032;2023-01-31T17:27:15;7.75;88.74
68177;DHT22;56478;50.982;7.032;2023-01-31T17:29:42;7.72;88.62
68177;DHT22;56478;50.982;7.032;2023-01-31T17:32:10;7.82;88.52
68177;DHT22;56478;50.982;7.032;2023-01-31T17:34:36;7.86;88.35
68177;DHT22;56478;50.982;7.032;2023-01-31T17:37:02;7.87;88.24
68177;DHT22;56478;50.982;7.032;2023-01-31T17:39:28;7.86;88.10
68177;DHT22;56478;50.982;7.032;2023-01-31T17:41:53;7.86;87.90
68177;DHT22;56478;50.982;7.032;2023-01-31T17:44:19;7.90;87.67
68177;DHT22;56478;50.982;7.032;2023-01-31T17:46:45;7.86;87.71
68177;DHT22;56478;50.982;7.032;2023-01-31T17:49:11;7.83;87.55
68177;DHT22;56478;50.982;7.032;2023-01-31T17:51:37;7.86;87.84
68177;DHT22;56478;50.982;7.032;2023-01-31T17:54:03;7.82;87.73
68177;DHT22;56478;50.982;7.032;2023-01-31T17:56:29;7.89;87.75
68177;DHT22;56478;50.982;7.032;2023-01-31T17:58:54;7.89;87.44
68177;DHT22;56478;50.982;7.032;2023-01-31T18:01:20;7.85;87.86
68177;DHT22;56478;50.982;7.032;2023-01-31T18:03:45;7.79;88.07
68177;DHT22;56478;50.982;7.032;2023-01-31T18:06:11;7.72;87.95
68177;DHT22;56478;50.982;7.032;2023-01-31T18:08:37;7.73;87.72
68177;DHT22;56478;50.982;7.032;2023-01-31T18:11:13;7.70;87.89
68177;DHT22;56478;50.982;7.032;2023-01-31T18:13:40;7.66;88.03
68177;DHT22;56478;50.982;7.032;2023-01-31T18:16:15;7.77;87.80
68177;DHT22;56478;50.982;7.032;2023-01-31T18:18:41;7.76;87.85
68177;DHT22;56478;50.982;7.032;2023-01-31T18:21:14;7.72;87.61
68177;DHT22;56478;50.982;7.032;2023-01-31T18:23:40;7.70;87.85
68177;DHT22;56478;50.982;7.032;2023-01-31T18:26:07;7.76;87.39
68177;DHT22;56478;50.982;7.032;2023-01-31T18:28:33;7.69;87.63
68177;DHT22;56478;50.982;7.032;2023-01-31T18:31:03;7.63;87.71